sensor_id;sensor_type;location;lat;lon;timestamp;pressure;altitude;pressure_sealevel;temperature;humidity
30636;BME280;17400;52.392;9.750;2023-01-31T00:01:25;101240.88;;;4.61;100.00
30636;BME280;17400;52.392;9.750;2023-01-31T00:03:53;101234.22;;;4.65;100.00
30636;BME280;17400;52.392;9.750;2023-01-31T00:06:23;101245.69;;;4.47;100.00
30636;BME280;17400;52.392;9.750;2023-01-31T00:08:51;101253.88;;;4.36;100.00
30636;BME280;17400;52.392;9.750;2023-01-31T00:11:21;101248.22;;;4.49;100.00
30636;BME280;17400;52.392;9.750;2023-01-31T00:13:49;101248.94;;;4.41;100.00
30636;BME280;17400;52.392;9.750;2023-01-31T00:16:20;101246.09;;;4.43;100.00
30636;BME280;17400;52.392;9.750;2023-01-31T00:18:48;101261.38;;;4.42;100.00
30636;BME280;17400;52.392;9.750;2023-01-31T00:21:18;101245.28;;;4.42;100.00
30636;BME280;17400;52.392;9.750;2023-01-31T00:23:47;101258.38;;;4.45;100.00
30636;BME280;17400;52.392;9.750;2023-01-31T00:26:16;101259.53;;;4.53;100.00
30636;BME280;17400;52.392;9.750;2023-01-31T00:28:45;101265.16;;;4.49;100.00
30636;BME280;17400;52.392;9.750;2023-01-31T00:31:14;101262.91;;;4.35;100.00
30636;BME280;17400;52.392;9.750;2023-01-31T00:33:45;101259.25;;;4.46;100.00
30636;BME280;17400;52.392;9.750;2023-01-31T00:36:18;101262.03;;;4.44;100.00
30636;BME280;17400;52.392;9.750;2023-01-31T00:38:47;101257.81;;;4.52;100.00
30636;BME280;17400;52.392;9.750;2023-01-31T00:41:15;101261.06;;;4.55;100.00
30636;BME280;17400;52.392;9.750;2023-01-31T00:43:42;101276.13;;;4.56;100.00
30636;BME280;17400;52.392;9.750;2023-01-31T00:46:10;101268.66;;;4.60;100.00
30636;BME280;17400;52.392;9.750;2023-01-31T00:48:38;101270.38;;;4.61;100.00
30636;BME280;17400;52.392;9.750;2023-01-31T00:51:07;101284.75;;;4.60;100.00
30636;BME280;17400;52.392;9.750;2023-01-31T00:53:35;101287.72;;;4.57;100.00
30636;BME280;17400;52.392;9.750;2023-01-31T00:56:05;101287.72;;;4.47;100.00
30636;BME280;17400;52.392;9.750;2023-01-31T00:58:34;101287.88;;;4.45;100.00
30636;BME280;17400;52.392;9.750;2023-01-31T01:01:06;101284.06;;;4.58;100.00
30636;BME280;17400;52.392;9.750;2023-01-31T01:03:35;101287.72;;;4.57;100.00
30636;BME280;17400;52.392;9.750;2023-01-31T01:06:04;101290.41;;;4.57;100.00
30636;BME280;17400;52.392;9.750;2023-01-31T01:08:34;101287.88;;;4.55;100.00
30636;BME280;17400;52.392;9.750;2023-01-31T01:11:06;101293.66;;;4.50;100.00
30636;BME280;17400;52.392;9.750;2023-01-31T01:13:35;101300.97;;;4.48;100.00
30636;BME280;17400;52.392;9.750;2023-01-31T01:16:04;101298.91;;;4.42;100.00
30636;BME280;17400;52.392;9.750;2023-01-31T01:18:32;101303.28;;;4.43;100.00
30636;BME280;17400;52.392;9.750;2023-01-31T01:21:05;101314.13;;;4.52;100.00
30636;BME280;17400;52.392;9.750;2023-01-31T01:23:34;101308.19;;;4.48;100.00
30636;BME280;17400;52.392;9.750;2023-01-31T01:26:02;101314.53;;;4.47;100.00
30636;BME280;17400;52.392;9.750;2023-01-31T01:28:32;101324.41;;;4.56;100.00
30636;BME280;17400;52.392;9.750;2023-01-31T01:31:04;101322.84;;;4.54;100.00
30636;BME280;17400;52.392;9.750;2023-01-31T01:33:33;101319.19;;;4.55;100.00
30636;BME280;17400;52.392;9.750;2023-01-31T01:36:01;101326.13;;;4.47;100.00
30636;BME280;17400;52.392;9.750;2023-01-31T01:38:29;101335.44;;;4.43;100.00
30636;BME280;17400;52.392;9.750;2023-01-31T01:40:59;101329.38;;;4.41;100.00
30636;BME280;17400;52.392;9.750;2023-01-31T01:43:41;101332.03;;;4.41;100.00
30636;BME280;17400;52.392;9.750;2023-01-31T01:46:12;101336.00;;;4.37;100.00
30636;BME280;17400;52.392;9.750;2023-01-31T01:48:44;101333.88;;;4.31;100.00
30636;BME280;17400;52.392;9.750;2023-01-31T01:51:14;101331.31;;;4.39;100.00
30636;BME280;17400;52.392;9.750;2023-01-31T01:53:46;101336.72;;;4.49;100.00
30636;BME280;17400;52.392;9.750;2023-01-31T01:56:20;101337.69;;;4.38;100.00
30636;BME280;17400;52.392;9.750;2023-01-31T01:58:53;101353.22;;;4.34;100.00
30636;BME280;17400;52.392;9.750;2023-01-31T02:01:25;101356.88;;;4.24;100.00
30636;BME280;17400;52.392;9.750;2023-01-31T02:03:55;101354.19;;;4.33;100.00
30636;BME280;17400;52.392;9.750;2023-01-31T02:06:23;101356.31;;;4.40;100.00
30636;BME280;17400;52.392;9.750;2023-01-31T02:08:51;101355.47;;;4.49;100.00
30636;BME280;17400;52.392;9.750;2023-01-31T02:11:23;101355.03;;;4.54;100.00
30636;BME280;17400;52.392;9.750;2023-01-31T02:13:55;101354.91;;;4.45;100.00
30636;BME280;17400;52.392;9.750;2023-01-31T02:16:24;101347.84;;;4.44;100.00
30636;BME280;17400;52.392;9.750;2023-01-31T02:18:52;101349.13;;;4.50;100.00
30636;BME280;17400;52.392;9.750;2023-01-31T02:21:47;101339.25;;;4.50;100.00
30636;BME280;17400;52.392;9.750;2023-01-31T02:27:59;101348.28;;;4.59;100.00
30636;BME280;17400;52.392;9.750;2023-01-31T02:30:41;101351.22;;;4.66;100.00
30636;BME280;17400;52.392;9.750;2023-01-31T02:33:20;101358.56;;;4.64;100.00
30636;BME280;17400;52.392;9.750;2023-01-31T02:35:57;101358.16;;;4.49;100.00
30636;BME280;17400;52.392;9.750;2023-01-31T02:38:40;101363.06;;;4.54;100.00
30636;BME280;17400;52.392;9.750;2023-01-31T02:41:15;101360.41;;;4.63;100.00
30636;BME280;17400;52.392;9.750;2023-01-31T02:43:51;101360.97;;;4.67;100.00
30636;BME280;17400;52.392;9.750;2023-01-31T02:46:46;101357.44;;;4.66;100.00
30636;BME280;17400;52.392;9.750;2023-01-31T02:49:21;101364.66;;;4.66;100.00
30636;BME280;17400;52.392;9.750;2023-01-31T02:52:05;101363.78;;;4.65;100.00
30636;BME280;17400;52.392;9.750;2023-01-31T02:54:50;101371.84;;;4.75;100.00
30636;BME280;17400;52.392;9.750;2023-01-31T02:57:40;101383.41;;;4.76;100.00
30636;BME280;17400;52.392;9.750;2023-01-31T03:00:11;101375.19;;;4.77;100.00
30636;BME280;17400;52.392;9.750;2023-01-31T03:02:40;101375.91;;;4.70;100.00
30636;BME280;17400;52.392;9.750;2023-01-31T03:05:13;101375.22;;;4.67;100.00
30636;BME280;17400;52.392;9.750;2023-01-31T03:07:42;101364.50;;;4.67;100.00
30636;BME280;17400;52.392;9.750;2023-01-31T03:10:57;101367.75;;;4.71;100.00
30636;BME280;17400;52.392;9.750;2023-01-31T03:13:44;101370.84;;;4.57;100.00
30636;BME280;17400;52.392;9.750;2023-01-31T03:16:19;101362.66;;;4.48;100.00
30636;BME280;17400;52.392;9.750;2023-01-31T03:19:13;101367.91;;;4.50;100.00
30636;BME280;17400;52.392;9.750;2023-01-31T03:21:48;101364.91;;;4.33;100.00
30636;BME280;17400;52.392;9.750;2023-01-31T03:24:16;101371.97;;;4.34;100.00
30636;BME280;17400;52.392;9.750;2023-01-31T03:26:45;101361.25;;;4.34;100.00
30636;BME280;17400;52.392;9.750;2023-01-31T03:29:15;101353.78;;;4.48;100.00
30636;BME280;17400;52.392;9.750;2023-01-31T03:31:47;101347.56;;;4.47;100.00
30636;BME280;17400;52.392;9.750;2023-01-31T03:34:16;101346.44;;;4.50;100.00
30636;BME280;17400;52.392;9.750;2023-01-31T03:36:50;101351.81;;;4.50;100.00
30636;BME280;17400;52.392;9.750;2023-01-31T03:39:28;101335.31;;;4.45;100.00
30636;BME280;17400;52.392;9.750;2023-01-31T03:42:01;101327.41;;;4.43;100.00
30636;BME280;17400;52.392;9.750;2023-01-31T03:44:39;101332.31;;;4.48;100.00
30636;BME280;17400;52.392;9.750;2023-01-31T03:47:13;101338.53;;;4.58;100.00
30636;BME280;17400;52.392;9.750;2023-01-31T03:49:44;101334.59;;;4.53;100.00
30636;BME280;17400;52.392;9.750;2023-01-31T03:52:18;101325.69;;;4.52;100.00
30636;BME280;17400;52.392;9.750;2023-01-31T03:54:53;101326.56;;;4.53;100.00
30636;BME280;17400;52.392;9.750;2023-01-31T03:57:24;101320.19;;;4.54;100.00
30636;BME280;17400;52.392;9.750;2023-01-31T03:59:57;101325.69;;;4.62;100.00
30636;BME280;17400;52.392;9.750;2023-01-31T04:02:30;101326.25;;;4.56;100.00
30636;BME280;17400;52.392;9.750;2023-01-31T04:05:04;101331.34;;;4.49;100.00
30636;BME280;17400;52.392;9.750;2023-01-31T04:07:35;101320.75;;;4.47;100.00
30636;BME280;17400;52.392;9.750;2023-01-31T04:10:04;101319.38;;;4.43;100.00
30636;BME280;17400;52.392;9.750;2023-01-31T04:12:34;101316.81;;;4.32;100.00
30636;BME280;17400;52.392;9.750;2023-01-31T04:15:03;101321.63;;;4.38;100.00
30636;BME280;17400;52.392;9.750;2023-01-31T04:17:31;101326.13;;;4.38;100.00
30636;BME280;17400;52.392;9.750;2023-01-31T04:19:58;101322.75;;;4.36;100.00
30636;BME280;17400;52.392;9.750;2023-01-31T04:22:27;101317.66;;;4.42;100.00
30636;BME280;17400;52.392;9.750;2023-01-31T04:24:55;101337.41;;;4.41;100.00
30636;BME280;17400;52.392;9.750;2023-01-31T04:27:23;101330.63;;;4.47;100.00
30636;BME280;17400;52.392;9.750;2023-01-31T04:29:51;101337.13;;;4.44;100.00
30636;BME280;17400;52.392;9.750;2023-01-31T04:32:18;101328.78;;;4.38;100.00
30636;BME280;17400;52.392;9.750;2023-01-31T04:34:46;101344.19;;;4.45;100.00
30636;BME280;17400;52.392;9.750;2023-01-31T04:37:13;101335.03;;;4.38;100.00
30636;BME280;17400;52.392;9.750;2023-01-31T04:39:41;101341.06;;;4.40;100.00
30636;BME280;17400;52.392;9.750;2023-01-31T04:42:10;101339.38;;;4.39;100.00
30636;BME280;17400;52.392;9.750;2023-01-31T04:44:38;101343.59;;;4.42;100.00
30636;BME280;17400;52.392;9.750;2023-01-31T04:47:05;101334.88;;;4.40;100.00
30636;BME280;17400;52.392;9.750;2023-01-31T04:49:33;101336.28;;;4.34;100.00
30636;BME280;17400;52.392;9.750;2023-01-31T04:52:01;101343.06;;;4.38;100.00
30636;BME280;17400;52.392;9.750;2023-01-31T04:54:28;101346.16;;;4.43;100.00
30636;BME280;17400;52.392;9.750;2023-01-31T04:56:56;101343.47;;;4.33;100.00
30636;BME280;17400;52.392;9.750;2023-01-31T04:59:25;101358.88;;;4.31;100.00
30636;BME280;17400;52.392;9.750;2023-01-31T05:01:52;101357.16;;;4.40;100.00
30636;BME280;17400;52.392;9.750;2023-01-31T05:04:20;101337.56;;;4.40;100.00
30636;BME280;17400;52.392;9.750;2023-01-31T05:06:49;101341.78;;;4.42;100.00
30636;BME280;17400;52.392;9.750;2023-01-31T05:09:16;101342.78;;;4.41;100.00
30636;BME280;17400;52.392;9.750;2023-01-31T05:11:44;101351.81;;;4.50;100.00
30636;BME280;17400;52.392;9.750;2023-01-31T05:14:12;101341.06;;;4.60;100.00
30636;BME280;17400;52.392;9.750;2023-01-31T05:16:41;101344.59;;;4.70;100.00
30636;BME280;17400;52.392;9.750;2023-01-31T05:19:13;101345.88;;;4.66;100.00
30636;BME280;17400;52.392;9.750;2023-01-31T05:21:41;101342.91;;;4.69;100.00
30636;BME280;17400;52.392;9.750;2023-01-31T05:24:21;101342.75;;;4.71;100.00
30636;BME280;17400;52.392;9.750;2023-01-31T05:26:49;101337.53;;;4.69;100.00
30636;BME280;17400;52.392;9.750;2023-01-31T05:29:19;101335.28;;;4.64;100.00
30636;BME280;17400;52.392;9.750;2023-01-31T05:31:50;101324.13;;;4.49;100.00
30636;BME280;17400;52.392;9.750;2023-01-31T05:34:18;101320.47;;;4.50;100.00
30636;BME280;17400;52.392;9.750;2023-01-31T05:36:46;101317.91;;;4.39;100.00
30636;BME280;17400;52.392;9.750;2023-01-31T05:39:13;101330.78;;;4.45;100.00
30636;BME280;17400;52.392;9.750;2023-01-31T05:41:41;101332.47;;;4.46;100.00
30636;BME280;17400;52.392;9.750;2023-01-31T05:44:10;101324.28;;;4.48;100.00
30636;BME280;17400;52.392;9.750;2023-01-31T05:46:39;101334.84;;;4.49;100.00
30636;BME280;17400;52.392;9.750;2023-01-31T05:49:09;101332.03;;;4.51;100.00
30636;BME280;17400;52.392;9.750;2023-01-31T05:51:37;101330.91;;;4.54;100.00
30636;BME280;17400;52.392;9.750;2023-01-31T05:54:05;101333.75;;;4.62;100.00
30636;BME280;17400;52.392;9.750;2023-01-31T05:56:33;101323.97;;;4.71;100.00
30636;BME280;17400;52.392;9.750;2023-01-31T05:59:01;101326.69;;;4.61;100.00
30636;BME280;17400;52.392;9.750;2023-01-31T06:01:29;101316.38;;;4.66;100.00
30636;BME280;17400;52.392;9.750;2023-01-31T06:03:57;101311.69;;;4.68;100.00
30636;BME280;17400;52.392;9.750;2023-01-31T06:06:26;101313.97;;;4.73;100.00
30636;BME280;17400;52.392;9.750;2023-01-31T06:08:54;101315.66;;;4.74;100.00
30636;BME280;17400;52.392;9.750;2023-01-31T06:11:21;101308.84;;;4.70;100.00
30636;BME280;17400;52.392;9.750;2023-01-31T06:13:50;101312.25;;;4.72;100.00
30636;BME280;17400;52.392;9.750;2023-01-31T06:16:20;101298.59;;;4.65;100.00
30636;BME280;17400;52.392;9.750;2023-01-31T06:18:47;101311.84;;;4.66;100.00
30636;BME280;17400;52.392;9.750;2023-01-31T06:21:15;101311.69;;;4.68;100.00
30636;BME280;17400;52.392;9.750;2023-01-31T06:23:44;101303.78;;;4.66;100.00
30636;BME280;17400;52.392;9.750;2023-01-31T06:26:13;101309.16;;;4.76;100.00
30636;BME280;17400;52.392;9.750;2023-01-31T06:28:41;101304.94;;;4.74;100.00
30636;BME280;17400;52.392;9.750;2023-01-31T06:31:11;101297.25;;;4.79;100.00
30636;BME280;17400;52.392;9.750;2023-01-31T06:33:39;101298.97;;;4.80;100.00
30636;BME280;17400;52.392;9.750;2023-01-31T06:36:13;101293.44;;;4.81;100.00
30636;BME280;17400;52.392;9.750;2023-01-31T06:38:49;101296.13;;;4.81;100.00
30636;BME280;17400;52.392;9.750;2023-01-31T06:41:17;101289.94;;;4.81;100.00
30636;BME280;17400;52.392;9.750;2023-01-31T06:43:45;101286.13;;;4.83;100.00
30636;BME280;17400;52.392;9.750;2023-01-31T06:46:12;101284.56;;;4.81;100.00
30636;BME280;17400;52.392;9.750;2023-01-31T06:48:40;101273.53;;;4.84;100.00
30636;BME280;17400;52.392;9.750;2023-01-31T06:51:09;101271.56;;;4.86;100.00
30636;BME280;17400;52.392;9.750;2023-01-31T06:53:37;101270.44;;;4.89;100.00
30636;BME280;17400;52.392;9.750;2023-01-31T06:56:06;101269.03;;;4.84;100.00
30636;BME280;17400;52.392;9.750;2023-01-31T06:58:34;101270.44;;;4.79;100.00
30636;BME280;17400;52.392;9.750;2023-01-31T07:01:05;101266.78;;;4.80;100.00
30636;BME280;17400;52.392;9.750;2023-01-31T07:03:34;101264.81;;;4.82;100.00
30636;BME280;17400;52.392;9.750;2023-01-31T07:06:01;101258.31;;;4.84;100.00
30636;BME280;17400;52.392;9.750;2023-01-31T07:08:29;101260.69;;;4.88;100.00
30636;BME280;17400;52.392;9.750;2023-01-31T07:11:01;101250.94;;;4.87;100.00
30636;BME280;17400;52.392;9.750;2023-01-31T07:13:31;101256.31;;;4.87;100.00
30636;BME280;17400;52.392;9.750;2023-01-31T07:15:58;101248.41;;;4.85;100.00
30636;BME280;17400;52.392;9.750;2023-01-31T07:18:26;101229.47;;;4.96;100.00
30636;BME280;17400;52.392;9.750;2023-01-31T07:20:54;101212.25;;;4.89;100.00
30636;BME280;17400;52.392;9.750;2023-01-31T07:23:22;101213.69;;;4.83;100.00
30636;BME280;17400;52.392;9.750;2023-01-31T07:25:50;101204.66;;;4.84;100.00
30636;BME280;17400;52.392;9.750;2023-01-31T07:28:17;101209.56;;;4.89;100.00
30636;BME280;17400;52.392;9.750;2023-01-31T07:30:47;101200.03;;;5.05;100.00
30636;BME280;17400;52.392;9.750;2023-01-31T07:33:16;101201.56;;;5.07;100.00
30636;BME280;17400;52.392;9.750;2023-01-31T07:35:43;101200.75;;;5.07;100.00
30636;BME280;17400;52.392;9.750;2023-01-31T07:38:11;101192.72;;;4.97;100.00
30636;BME280;17400;52.392;9.750;2023-01-31T07:40:39;101188.22;;;4.97;100.00
30636;BME280;17400;52.392;9.750;2023-01-31T07:43:06;101184.97;;;4.94;100.00
30636;BME280;17400;52.392;9.750;2023-01-31T07:45:34;101177.78;;;4.94;100.00
30636;BME280;17400;52.392;9.750;2023-01-31T07:48:04;101182.69;;;4.99;100.00
30636;BME280;17400;52.392;9.750;2023-01-31T07:50:32;101183.94;;;5.05;100.00
30636;BME280;17400;52.392;9.750;2023-01-31T07:53:00;101186.63;;;5.05;100.00
30636;BME280;17400;52.392;9.750;2023-01-31T07:55:28;101174.91;;;5.06;100.00
30636;BME280;17400;52.392;9.750;2023-01-31T07:57:56;101179.66;;;5.12;100.00
30636;BME280;17400;52.392;9.750;2023-01-31T08:00:24;101176.44;;;5.08;100.00
30636;BME280;17400;52.392;9.750;2023-01-31T08:03:22;101169.47;;;5.15;100.00
30636;BME280;17400;52.392;9.750;2023-01-31T08:06:01;101165.78;;;5.16;100.00
30636;BME280;17400;52.392;9.750;2023-01-31T08:08:30;101164.66;;;5.19;100.00
30636;BME280;17400;52.392;9.750;2023-01-31T08:10:58;101148.53;;;5.19;100.00
30636;BME280;17400;52.392;9.750;2023-01-31T08:13:26;101147.25;;;5.23;100.00
30636;BME280;17400;52.392;9.750;2023-01-31T08:15:53;101143.72;;;5.23;100.00
30636;BME280;17400;52.392;9.750;2023-01-31T08:18:22;101139.75;;;5.27;100.00
30636;BME280;17400;52.392;9.750;2023-01-31T08:20:50;101136.31;;;5.34;100.00
30636;BME280;17400;52.392;9.750;2023-01-31T08:23:18;101131.16;;;5.41;100.00
30636;BME280;17400;52.392;9.750;2023-01-31T08:25:46;101134.06;;;5.48;100.00
30636;BME280;17400;52.392;9.750;2023-01-31T08:28:14;101134.53;;;5.43;100.00
30636;BME280;17400;52.392;9.750;2023-01-31T08:30:42;101126.19;;;5.46;100.00
30636;BME280;17400;52.392;9.750;2023-01-31T08:33:23;101134.84;;;5.40;100.00
30636;BME280;17400;52.392;9.750;2023-01-31T08:35:51;101134.84;;;5.40;100.00
30636;BME280;17400;52.392;9.750;2023-01-31T08:38:18;101129.47;;;5.40;100.00
30636;BME280;17400;52.392;9.750;2023-01-31T08:40:46;101120.66;;;5.48;100.00
30636;BME280;17400;52.392;9.750;2023-01-31T08:43:13;101106.69;;;5.44;100.00
30636;BME280;17400;52.392;9.750;2023-01-31T08:45:41;101111.06;;;5.45;100.00
30636;BME280;17400;52.392;9.750;2023-01-31T08:48:09;101112.03;;;5.44;100.00
30636;BME280;17400;52.392;9.750;2023-01-31T08:50:38;101113.44;;;5.48;100.00
30636;BME280;17400;52.392;9.750;2023-01-31T08:53:06;101100.53;;;5.52;100.00
30636;BME280;17400;52.392;9.750;2023-01-31T08:55:34;101105.69;;;5.45;100.00
30636;BME280;17400;52.392;9.750;2023-01-31T08:58:02;101092.09;;;5.47;100.00
30636;BME280;17400;52.392;9.750;2023-01-31T09:00:30;101088.94;;;5.51;100.00
30636;BME280;17400;52.392;9.750;2023-01-31T09:02:59;101074.50;;;5.53;100.00
30636;BME280;17400;52.392;9.750;2023-01-31T09:05:28;101078.06;;;5.53;100.00
30636;BME280;17400;52.392;9.750;2023-01-31T09:07:57;101068.97;;;5.54;100.00
30636;BME280;17400;52.392;9.750;2023-01-31T09:10:25;101073.59;;;5.62;100.00
30636;BME280;17400;52.392;9.750;2023-01-31T09:12:52;101073.75;;;5.60;100.00
30636;BME280;17400;52.392;9.750;2023-01-31T09:15:20;101077.25;;;5.61;100.00
30636;BME280;17400;52.392;9.750;2023-01-31T09:17:49;101076.97;;;5.64;100.00
30636;BME280;17400;52.392;9.750;2023-01-31T09:20:16;101076.44;;;5.60;100.00
30636;BME280;17400;52.392;9.750;2023-01-31T09:22:44;101071.88;;;5.61;100.00
30636;BME280;17400;52.392;9.750;2023-01-31T09:25:13;101077.97;;;5.63;100.00
30636;BME280;17400;52.392;9.750;2023-01-31T09:27:41;101095.00;;;5.54;100.00
30636;BME280;17400;52.392;9.750;2023-01-31T09:30:09;101077.97;;;5.45;100.00
30636;BME280;17400;52.392;9.750;2023-01-31T09:32:37;101078.19;;;5.51;100.00
30636;BME280;17400;52.392;9.750;2023-01-31T09:35:07;101068.00;;;5.55;100.00
30636;BME280;17400;52.392;9.750;2023-01-31T09:37:35;101062.63;;;5.55;100.00
30636;BME280;17400;52.392;9.750;2023-01-31T09:40:04;101070.06;;;5.61;100.00
30636;BME280;17400;52.392;9.750;2023-01-31T09:42:35;101052.66;;;5.47;100.00
30636;BME280;17400;52.392;9.750;2023-01-31T09:45:09;101054.34;;;5.48;100.00
30636;BME280;17400;52.392;9.750;2023-01-31T09:47:41;101054.28;;;5.40;100.00
30636;BME280;17400;52.392;9.750;2023-01-31T09:50:17;101051.06;;;5.37;100.00
30636;BME280;17400;52.392;9.750;2023-01-31T09:52:47;101032.66;;;5.24;100.00
30636;BME280;17400;52.392;9.750;2023-01-31T09:55:16;101015.72;;;5.23;100.00
30636;BME280;17400;52.392;9.750;2023-01-31T09:57:51;101030.66;;;5.26;100.00
30636;BME280;17400;52.392;9.750;2023-01-31T10:00:27;101030.66;;;5.26;100.00
30636;BME280;17400;52.392;9.750;2023-01-31T10:03:15;101047.75;;;5.25;100.00
30636;BME280;17400;52.392;9.750;2023-01-31T10:05:48;101016.88;;;5.21;100.00
30636;BME280;17400;52.392;9.750;2023-01-31T10:08:25;101015.00;;;5.21;100.00
30636;BME280;17400;52.392;9.750;2023-01-31T10:11:02;101020.75;;;5.26;100.00
30636;BME280;17400;52.392;9.750;2023-01-31T10:13:33;101020.31;;;5.31;100.00
30636;BME280;17400;52.392;9.750;2023-01-31T10:16:08;101010.25;;;5.33;100.00
30636;BME280;17400;52.392;9.750;2023-01-31T10:18:41;101018.00;;;5.36;100.00
30636;BME280;17400;52.392;9.750;2023-01-31T10:21:12;101012.88;;;5.25;100.00
30636;BME280;17400;52.392;9.750;2023-01-31T10:23:45;101001.84;;;5.28;100.00
30636;BME280;17400;52.392;9.750;2023-01-31T10:26:19;100999.50;;;5.33;100.00
30636;BME280;17400;52.392;9.750;2023-01-31T10:28:58;100990.25;;;5.27;100.00
30636;BME280;17400;52.392;9.750;2023-01-31T10:31:31;100989.25;;;5.28;100.00
30636;BME280;17400;52.392;9.750;2023-01-31T10:34:04;100984.56;;;5.30;100.00
30636;BME280;17400;52.392;9.750;2023-01-31T10:36:36;100983.41;;;5.33;100.00
30636;BME280;17400;52.392;9.750;2023-01-31T10:39:07;100972.81;;;5.31;100.00
30636;BME280;17400;52.392;9.750;2023-01-31T10:41:46;100969.84;;;5.34;100.00
30636;BME280;17400;52.392;9.750;2023-01-31T10:44:24;100968.16;;;5.33;100.00
30636;BME280;17400;52.392;9.750;2023-01-31T10:46:55;100957.25;;;5.35;100.00
30636;BME280;17400;52.392;9.750;2023-01-31T10:49:27;100955.72;;;5.32;100.00
30636;BME280;17400;52.392;9.750;2023-01-31T10:52:06;100950.19;;;5.34;100.00
30636;BME280;17400;52.392;9.750;2023-01-31T10:54:49;100930.03;;;5.30;100.00
30636;BME280;17400;52.392;9.750;2023-01-31T10:57:21;100931.41;;;5.34;100.00
30636;BME280;17400;52.392;9.750;2023-01-31T10:59:52;100923.72;;;5.39;100.00
30636;BME280;17400;52.392;9.750;2023-01-31T11:02:22;100920.88;;;5.41;100.00
30636;BME280;17400;52.392;9.750;2023-01-31T11:04:52;100917.88;;;5.44;100.00
30636;BME280;17400;52.392;9.750;2023-01-31T11:07:20;100903.72;;;5.60;100.00
30636;BME280;17400;52.392;9.750;2023-01-31T11:09:50;100908.59;;;5.64;100.00
30636;BME280;17400;52.392;9.750;2023-01-31T11:12:20;100914.47;;;5.60;100.00
30636;BME280;17400;52.392;9.750;2023-01-31T11:15:06;100897.56;;;5.67;100.00
30636;BME280;17400;52.392;9.750;2023-01-31T11:17:38;100897.84;;;5.64;100.00
30636;BME280;17400;52.392;9.750;2023-01-31T11:20:20;100884.78;;;5.70;100.00
30636;BME280;17400;52.392;9.750;2023-01-31T11:22:50;100885.91;;;5.59;100.00
30636;BME280;17400;52.392;9.750;2023-01-31T11:25:20;100888.94;;;5.56;100.00
30636;BME280;17400;52.392;9.750;2023-01-31T11:27:51;100884.56;;;5.55;100.00
30636;BME280;17400;52.392;9.750;2023-01-31T11:30:26;100887.25;;;5.55;100.00
30636;BME280;17400;52.392;9.750;2023-01-31T11:32:55;100882.84;;;5.54;100.00
30636;BME280;17400;52.392;9.750;2023-01-31T11:35:26;100876.50;;;5.55;100.00
30636;BME280;17400;52.392;9.750;2023-01-31T11:37:56;100879.69;;;5.58;100.00
30636;BME280;17400;52.392;9.750;2023-01-31T11:40:30;100880.22;;;5.62;100.00
30636;BME280;17400;52.392;9.750;2023-01-31T11:43:00;100873.16;;;5.61;100.00
30636;BME280;17400;52.392;9.750;2023-01-31T11:45:30;100865.63;;;5.64;100.00
30636;BME280;17400;52.392;9.750;2023-01-31T11:48:05;100870.81;;;5.66;100.00
30636;BME280;17400;52.392;9.750;2023-01-31T11:50:36;100845.66;;;5.67;100.00
30636;BME280;17400;52.392;9.750;2023-01-31T11:53:15;100851.03;;;5.67;100.00
30636;BME280;17400;52.392;9.750;2023-01-31T11:55:45;100852.38;;;5.71;100.00
30636;BME280;17400;52.392;9.750;2023-01-31T11:58:19;100854.91;;;5.73;100.00
30636;BME280;17400;52.392;9.750;2023-01-31T12:00:53;100840.00;;;5.78;100.00
30636;BME280;17400;52.392;9.750;2023-01-31T12:03:22;100832.06;;;5.68;100.00
30636;BME280;17400;52.392;9.750;2023-01-31T12:06:00;100829.88;;;5.64;100.00
30636;BME280;17400;52.392;9.750;2023-01-31T12:08:30;100836.94;;;5.65;100.00
30636;BME280;17400;52.392;9.750;2023-01-31T12:10:59;100822.97;;;5.61;100.00
30636;BME280;17400;52.392;9.750;2023-01-31T12:13:30;100802.50;;;5.60;100.00
30636;BME280;17400;52.392;9.750;2023-01-31T12:16:01;100822.28;;;5.59;100.00
30636;BME280;17400;52.392;9.750;2023-01-31T12:18:43;100809.22;;;5.64;100.00
30636;BME280;17400;52.392;9.750;2023-01-31T12:21:15;100807.38;;;5.65;100.00
30636;BME280;17400;52.392;9.750;2023-01-31T12:23:51;100807.53;;;5.63;100.00
30636;BME280;17400;52.392;9.750;2023-01-31T12:26:25;100809.91;;;5.66;100.00
30636;BME280;17400;52.392;9.750;2023-01-31T12:29:08;100801.34;;;5.71;100.00
30636;BME280;17400;52.392;9.750;2023-01-31T12:31:53;100803.72;;;5.74;100.00
30636;BME280;17400;52.392;9.750;2023-01-31T12:34:43;100806.41;;;5.74;100.00
30636;BME280;17400;52.392;9.750;2023-01-31T12:37:37;100809.56;;;5.70;100.00
30636;BME280;17400;52.392;9.750;2023-01-31T12:40:19;100806.25;;;5.76;100.00
30636;BME280;17400;52.392;9.750;2023-01-31T12:42:55;100811.44;;;5.77;100.00
30636;BME280;17400;52.392;9.750;2023-01-31T12:45:37;100813.44;;;5.75;100.00
30636;BME280;17400;52.392;9.750;2023-01-31T12:48:24;100812.78;;;5.73;100.00
30636;BME280;17400;52.392;9.750;2023-01-31T12:51:01;100797.66;;;5.64;100.00
30636;BME280;17400;52.392;9.750;2023-01-31T12:53:46;100812.25;;;5.61;100.00
30636;BME280;17400;52.392;9.750;2023-01-31T12:56:29;100819.75;;;5.58;100.00
30636;BME280;17400;52.392;9.750;2023-01-31T12:59:04;100825.03;;;5.67;100.00
30636;BME280;17400;52.392;9.750;2023-01-31T13:01:45;100824.31;;;5.57;100.00
30636;BME280;17400;52.392;9.750;2023-01-31T13:04:27;100818.94;;;5.57;100.00
30636;BME280;17400;52.392;9.750;2023-01-31T13:06:59;100831.13;;;5.51;100.00
30636;BME280;17400;52.392;9.750;2023-01-31T13:09:31;100841.25;;;5.58;100.00
30636;BME280;17400;52.392;9.750;2023-01-31T13:12:04;100819.44;;;5.61;100.00
30636;BME280;17400;52.392;9.750;2023-01-31T13:14:37;100830.88;;;5.63;100.00
30636;BME280;17400;52.392;9.750;2023-01-31T13:17:10;100819.66;;;5.67;100.00